Terminal Aerodrome Forecast
Issued by NWS

Home | Current Version | Previous Version | Text Only | Print | Product List | Glossary On
Versions: 1 2 3 4 5 6 7 8 9 10 11 12 13 14 15 16 17 18
585
FTUS43 KIND 061120
TAFLAF
TAF
KLAF 061120Z 0612/0712 19005KT P6SM BKN060
      TEMPO 0612/0614 5SM BR
     FM061500 24008KT P6SM BKN040
     FM070000 23004KT P6SM SCT050
     FM070600 23005KT P6SM BKN150
      AMD LTD TO CLD VIS AND WIND TIL 061400=

USA.gov is the U.S. government's official web portal to all federal, state and local government web resources and services.